sensor_id;sensor_type;location;lat;lon;timestamp;pressure;altitude;pressure_sealevel;temperature;humidity
40650;BME280;26342;42.826;23.992;2023-02-26T00:01:32;94130.47;;;13.69;50.85
40650;BME280;26342;42.826;23.992;2023-02-26T00:04:00;94124.31;;;13.68;50.22
40650;BME280;26342;42.826;23.992;2023-02-26T00:06:27;94122.72;;;13.67;50.81
40650;BME280;26342;42.826;23.992;2023-02-26T00:08:53;94107.25;;;13.64;49.20
40650;BME280;26342;42.826;23.992;2023-02-26T00:11:19;94113.53;;;13.60;50.13
40650;BME280;26342;42.826;23.992;2023-02-26T00:13:45;94106.47;;;13.41;50.33
40650;BME280;26342;42.826;23.992;2023-02-26T00:16:29;94120.00;;;13.59;51.39
40650;BME280;26342;42.826;23.992;2023-02-26T00:18:56;94125.34;;;13.59;49.86
40650;BME280;26342;42.826;23.992;2023-02-26T00:21:22;94098.28;;;13.69;46.75
40650;BME280;26342;42.826;23.992;2023-02-26T00:23:48;94108.75;;;13.79;46.60
40650;BME280;26342;42.826;23.992;2023-02-26T00:26:14;94106.38;;;13.78;46.94
40650;BME280;26342;42.826;23.992;2023-02-26T00:28:40;94117.72;;;13.75;48.14
40650;BME280;26342;42.826;23.992;2023-02-26T00:31:06;94109.97;;;13.73;48.53
40650;BME280;26342;42.826;23.992;2023-02-26T00:33:32;94089.22;;;13.56;49.20
40650;BME280;26342;42.826;23.992;2023-02-26T00:39:00;94122.69;;;13.59;49.84
40650;BME280;26342;42.826;23.992;2023-02-26T00:41:31;94078.44;;;13.48;50.49
40650;BME280;26342;42.826;23.992;2023-02-26T00:43:56;94096.84;;;13.40;50.27
40650;BME280;26342;42.826;23.992;2023-02-26T00:46:40;94088.81;;;13.40;50.75
40650;BME280;26342;42.826;23.992;2023-02-26T00:52:01;94087.06;;;13.36;50.68
40650;BME280;26342;42.826;23.992;2023-02-26T00:54:28;94084.66;;;13.34;48.74
40650;BME280;26342;42.826;23.992;2023-02-26T00:56:56;94072.06;;;13.35;48.64
40650;BME280;26342;42.826;23.992;2023-02-26T00:59:22;94107.25;;;13.42;47.90
40650;BME280;26342;42.826;23.992;2023-02-26T01:01:48;94068.53;;;13.48;45.95
40650;BME280;26342;42.826;23.992;2023-02-26T01:04:16;94074.25;;;13.55;47.10
40650;BME280;26342;42.826;23.992;2023-02-26T01:06:45;94049.00;;;13.56;46.99
40650;BME280;26342;42.826;23.992;2023-02-26T01:09:27;94077.59;;;13.61;46.02
40650;BME280;26342;42.826;23.992;2023-02-26T01:11:55;94045.47;;;13.69;44.01
40650;BME280;26342;42.826;23.992;2023-02-26T01:14:22;94035.84;;;13.68;44.35
40650;BME280;26342;42.826;23.992;2023-02-26T01:20:00;94042.66;;;13.75;44.25
40650;BME280;26342;42.826;23.992;2023-02-26T01:25:12;94020.16;;;13.84;44.14
40650;BME280;26342;42.826;23.992;2023-02-26T01:27:38;94045.50;;;13.78;43.34
40650;BME280;26342;42.826;23.992;2023-02-26T01:30:05;94007.97;;;13.78;43.78
40650;BME280;26342;42.826;23.992;2023-02-26T01:32:47;94027.00;;;13.99;43.12
40650;BME280;26342;42.826;23.992;2023-02-26T01:38:31;94024.44;;;13.94;42.96
40650;BME280;26342;42.826;23.992;2023-02-26T01:46:22;93997.75;;;13.89;43.95
40650;BME280;26342;42.826;23.992;2023-02-26T01:48:56;94012.91;;;13.93;42.19
40650;BME280;26342;42.826;23.992;2023-02-26T01:54:12;94026.28;;;13.85;43.51
40650;BME280;26342;42.826;23.992;2023-02-26T01:56:38;94025.00;;;13.82;43.38
40650;BME280;26342;42.826;23.992;2023-02-26T01:59:06;93995.31;;;13.70;43.41
40650;BME280;26342;42.826;23.992;2023-02-26T02:01:33;94025.81;;;13.83;44.01
40650;BME280;26342;42.826;23.992;2023-02-26T02:04:01;94021.69;;;13.77;42.11
40650;BME280;26342;42.826;23.992;2023-02-26T02:06:28;94021.75;;;13.94;40.59
40650;BME280;26342;42.826;23.992;2023-02-26T02:08:54;94009.47;;;14.02;41.00
40650;BME280;26342;42.826;23.992;2023-02-26T02:11:20;94015.94;;;14.01;40.60
40650;BME280;26342;42.826;23.992;2023-02-26T02:14:16;93998.09;;;13.96;40.72
40650;BME280;26342;42.826;23.992;2023-02-26T02:16:58;94003.78;;;13.94;42.44
40650;BME280;26342;42.826;23.992;2023-02-26T02:20:06;94004.44;;;14.00;40.75
40650;BME280;26342;42.826;23.992;2023-02-26T02:23:00;94013.56;;;13.99;40.43
40650;BME280;26342;42.826;23.992;2023-02-26T02:31:57;94008.13;;;13.82;41.72
40650;BME280;26342;42.826;23.992;2023-02-26T02:37:16;94029.28;;;13.83;42.43
40650;BME280;26342;42.826;23.992;2023-02-26T02:39:48;94020.47;;;13.83;41.50
40650;BME280;26342;42.826;23.992;2023-02-26T02:45:06;94023.09;;;13.74;43.14
40650;BME280;26342;42.826;23.992;2023-02-26T02:47:35;94041.09;;;13.82;42.23
40650;BME280;26342;42.826;23.992;2023-02-26T02:52:55;94046.28;;;13.79;43.36
40650;BME280;26342;42.826;23.992;2023-02-26T02:55:29;94028.97;;;13.85;43.79
40650;BME280;26342;42.826;23.992;2023-02-26T02:58:02;94044.41;;;13.79;44.10
40650;BME280;26342;42.826;23.992;2023-02-26T03:00:30;94033.66;;;13.71;45.27
40650;BME280;26342;42.826;23.992;2023-02-26T03:05:27;94034.75;;;13.69;46.11
40650;BME280;26342;42.826;23.992;2023-02-26T03:07:56;94038.50;;;13.60;46.63
40650;BME280;26342;42.826;23.992;2023-02-26T03:10:23;94037.97;;;13.58;46.94
40650;BME280;26342;42.826;23.992;2023-02-26T03:12:49;94041.75;;;13.57;47.56
40650;BME280;26342;42.826;23.992;2023-02-26T03:15:17;94042.66;;;13.44;48.35
40650;BME280;26342;42.826;23.992;2023-02-26T03:17:55;94061.22;;;13.40;48.65
40650;BME280;26342;42.826;23.992;2023-02-26T03:20:31;94059.75;;;13.34;48.44
40650;BME280;26342;42.826;23.992;2023-02-26T03:23:06;94063.72;;;13.36;48.89
40650;BME280;26342;42.826;23.992;2023-02-26T03:26:00;94065.38;;;13.24;49.89
40650;BME280;26342;42.826;23.992;2023-02-26T03:36:17;94067.09;;;13.06;50.93
40650;BME280;26342;42.826;23.992;2023-02-26T03:38:48;94073.72;;;13.08;50.56
40650;BME280;26342;42.826;23.992;2023-02-26T03:41:39;94061.44;;;13.07;50.72
40650;BME280;26342;42.826;23.992;2023-02-26T03:44:17;94089.63;;;13.05;51.40
40650;BME280;26342;42.826;23.992;2023-02-26T03:46:51;94075.56;;;12.99;51.55
40650;BME280;26342;42.826;23.992;2023-02-26T03:49:24;94071.81;;;12.86;51.54
40650;BME280;26342;42.826;23.992;2023-02-26T03:51:51;94052.69;;;12.79;52.49
40650;BME280;26342;42.826;23.992;2023-02-26T03:54:25;94060.38;;;12.72;53.34
40650;BME280;26342;42.826;23.992;2023-02-26T03:56:52;94048.50;;;12.65;53.16
40650;BME280;26342;42.826;23.992;2023-02-26T03:59:17;94037.34;;;12.71;51.80
40650;BME280;26342;42.826;23.992;2023-02-26T04:01:57;94051.34;;;12.68;52.69
40650;BME280;26342;42.826;23.992;2023-02-26T04:04:34;94047.97;;;12.76;51.38
40650;BME280;26342;42.826;23.992;2023-02-26T04:07:01;94056.47;;;12.78;51.48
40650;BME280;26342;42.826;23.992;2023-02-26T04:09:27;94056.84;;;12.85;52.52
40650;BME280;26342;42.826;23.992;2023-02-26T04:11:53;94050.47;;;12.73;51.37
40650;BME280;26342;42.826;23.992;2023-02-26T04:14:21;94040.13;;;12.80;51.16
40650;BME280;26342;42.826;23.992;2023-02-26T04:16:47;94049.16;;;12.70;52.49
40650;BME280;26342;42.826;23.992;2023-02-26T04:19:12;94040.03;;;12.49;53.44
40650;BME280;26342;42.826;23.992;2023-02-26T04:21:38;94040.91;;;12.44;53.92
40650;BME280;26342;42.826;23.992;2023-02-26T04:24:03;94061.69;;;12.47;53.80
40650;BME280;26342;42.826;23.992;2023-02-26T04:26:29;94050.78;;;12.57;53.13
40650;BME280;26342;42.826;23.992;2023-02-26T04:28:54;94051.44;;;12.41;54.24
40650;BME280;26342;42.826;23.992;2023-02-26T04:31:20;94061.75;;;12.34;54.21
40650;BME280;26342;42.826;23.992;2023-02-26T04:33:45;94053.09;;;12.37;53.87
40650;BME280;26342;42.826;23.992;2023-02-26T04:36:10;94065.78;;;12.45;53.19
40650;BME280;26342;42.826;23.992;2023-02-26T04:38:36;94062.78;;;12.46;52.51
40650;BME280;26342;42.826;23.992;2023-02-26T04:41:01;94064.59;;;12.51;53.41
40650;BME280;26342;42.826;23.992;2023-02-26T04:43:27;94063.09;;;12.45;54.13
40650;BME280;26342;42.826;23.992;2023-02-26T04:45:53;94058.28;;;12.33;54.76
40650;BME280;26342;42.826;23.992;2023-02-26T04:48:19;94062.31;;;12.30;55.14
40650;BME280;26342;42.826;23.992;2023-02-26T04:50:44;94053.03;;;12.28;54.95
40650;BME280;26342;42.826;23.992;2023-02-26T04:53:10;94042.41;;;12.23;55.26
40650;BME280;26342;42.826;23.992;2023-02-26T04:55:36;94040.34;;;12.20;55.76
40650;BME280;26342;42.826;23.992;2023-02-26T04:58:02;94036.50;;;12.12;57.18
40650;BME280;26342;42.826;23.992;2023-02-26T05:00:28;94034.72;;;11.94;56.71
40650;BME280;26342;42.826;23.992;2023-02-26T05:02:53;94025.78;;;11.98;56.80
40650;BME280;26342;42.826;23.992;2023-02-26T05:05:18;94020.06;;;11.91;56.67
40650;BME280;26342;42.826;23.992;2023-02-26T05:07:44;94024.44;;;11.87;56.88
40650;BME280;26342;42.826;23.992;2023-02-26T05:10:10;94025.59;;;11.81;57.80
40650;BME280;26342;42.826;23.992;2023-02-26T05:12:36;94028.16;;;11.72;57.37
40650;BME280;26342;42.826;23.992;2023-02-26T05:15:02;94033.50;;;11.72;57.74
40650;BME280;26342;42.826;23.992;2023-02-26T05:17:27;94032.69;;;11.72;57.99
40650;BME280;26342;42.826;23.992;2023-02-26T05:19:53;94008.44;;;11.68;58.58
40650;BME280;26342;42.826;23.992;2023-02-26T05:22:18;94009.94;;;11.74;58.94
40650;BME280;26342;42.826;23.992;2023-02-26T05:24:44;94016.06;;;11.75;58.15
40650;BME280;26342;42.826;23.992;2023-02-26T05:27:10;94027.84;;;11.74;57.56
40650;BME280;26342;42.826;23.992;2023-02-26T05:29:35;94026.34;;;11.68;57.54
40650;BME280;26342;42.826;23.992;2023-02-26T05:32:02;94020.03;;;11.78;56.29
40650;BME280;26342;42.826;23.992;2023-02-26T05:34:27;94025.59;;;11.81;56.63
40650;BME280;26342;42.826;23.992;2023-02-26T05:36:53;94014.81;;;11.86;55.82
40650;BME280;26342;42.826;23.992;2023-02-26T05:39:19;94027.91;;;12.01;54.13
40650;BME280;26342;42.826;23.992;2023-02-26T05:41:44;94011.63;;;12.12;53.92
40650;BME280;26342;42.826;23.992;2023-02-26T05:44:10;94003.53;;;12.17;53.79
40650;BME280;26342;42.826;23.992;2023-02-26T05:46:36;94017.25;;;12.24;53.22
40650;BME280;26342;42.826;23.992;2023-02-26T05:49:01;93999.84;;;12.26;52.49
40650;BME280;26342;42.826;23.992;2023-02-26T05:51:27;94010.22;;;12.42;50.72
40650;BME280;26342;42.826;23.992;2023-02-26T05:53:53;94017.69;;;12.53;50.02
40650;BME280;26342;42.826;23.992;2023-02-26T05:56:18;94028.09;;;12.55;50.94
40650;BME280;26342;42.826;23.992;2023-02-26T05:58:44;94019.66;;;12.62;50.82
40650;BME280;26342;42.826;23.992;2023-02-26T06:01:09;94035.06;;;12.56;50.46
40650;BME280;26342;42.826;23.992;2023-02-26T06:03:35;94003.22;;;12.54;50.40
40650;BME280;26342;42.826;23.992;2023-02-26T06:06:00;94019.25;;;12.68;50.19
40650;BME280;26342;42.826;23.992;2023-02-26T06:08:25;94031.22;;;12.71;49.80
40650;BME280;26342;42.826;23.992;2023-02-26T06:10:51;94011.59;;;12.75;49.36
40650;BME280;26342;42.826;23.992;2023-02-26T06:13:17;93993.34;;;12.77;49.47
40650;BME280;26342;42.826;23.992;2023-02-26T06:15:42;94000.78;;;12.80;49.55
40650;BME280;26342;42.826;23.992;2023-02-26T06:18:07;93992.59;;;12.85;48.54
40650;BME280;26342;42.826;23.992;2023-02-26T06:20:33;94011.22;;;12.91;49.05
40650;BME280;26342;42.826;23.992;2023-02-26T06:22:59;93990.28;;;12.93;49.13
40650;BME280;26342;42.826;23.992;2023-02-26T06:25:24;94005.16;;;12.99;48.57
40650;BME280;26342;42.826;23.992;2023-02-26T06:27:50;94015.06;;;12.98;48.19
40650;BME280;26342;42.826;23.992;2023-02-26T06:30:15;94004.34;;;12.98;48.11
40650;BME280;26342;42.826;23.992;2023-02-26T06:32:42;93998.88;;;13.03;47.73
40650;BME280;26342;42.826;23.992;2023-02-26T06:35:08;93989.75;;;13.04;48.42
40650;BME280;26342;42.826;23.992;2023-02-26T06:37:34;93972.59;;;13.05;47.49
40650;BME280;26342;42.826;23.992;2023-02-26T06:39:59;93990.41;;;13.10;47.19
40650;BME280;26342;42.826;23.992;2023-02-26T06:42:24;93991.38;;;13.14;47.64
40650;BME280;26342;42.826;23.992;2023-02-26T06:44:50;94004.47;;;13.16;47.10
40650;BME280;26342;42.826;23.992;2023-02-26T06:47:15;93981.06;;;13.21;46.75
40650;BME280;26342;42.826;23.992;2023-02-26T06:49:40;93957.31;;;13.28;46.82
40650;BME280;26342;42.826;23.992;2023-02-26T06:52:06;93965.50;;;13.32;46.25
40650;BME280;26342;42.826;23.992;2023-02-26T06:54:31;93977.22;;;13.36;45.76
40650;BME280;26342;42.826;23.992;2023-02-26T06:56:57;93964.31;;;13.47;45.26
40650;BME280;26342;42.826;23.992;2023-02-26T06:59:23;93947.19;;;13.56;45.16
40650;BME280;26342;42.826;23.992;2023-02-26T07:01:48;93966.31;;;13.72;44.23
40650;BME280;26342;42.826;23.992;2023-02-26T07:04:14;93967.63;;;13.83;43.51
40650;BME280;26342;42.826;23.992;2023-02-26T07:06:39;93947.31;;;14.00;43.20
40650;BME280;26342;42.826;23.992;2023-02-26T07:09:04;93990.09;;;14.13;42.74
40650;BME280;26342;42.826;23.992;2023-02-26T07:11:30;93970.06;;;14.19;41.95
40650;BME280;26342;42.826;23.992;2023-02-26T07:13:55;93952.25;;;14.32;42.02
40650;BME280;26342;42.826;23.992;2023-02-26T07:16:21;93959.69;;;14.44;42.11
40650;BME280;26342;42.826;23.992;2023-02-26T07:18:46;93982.94;;;14.57;41.29
40650;BME280;26342;42.826;23.992;2023-02-26T07:21:11;93986.09;;;14.68;40.56
40650;BME280;26342;42.826;23.992;2023-02-26T07:23:37;93966.19;;;14.77;39.99
40650;BME280;26342;42.826;23.992;2023-02-26T07:26:02;94004.25;;;14.88;39.65
40650;BME280;26342;42.826;23.992;2023-02-26T07:28:28;93990.97;;;14.92;39.90
40650;BME280;26342;42.826;23.992;2023-02-26T07:30:55;93973.91;;;15.05;39.07
40650;BME280;26342;42.826;23.992;2023-02-26T07:33:20;93957.78;;;15.14;38.98
40650;BME280;26342;42.826;23.992;2023-02-26T07:35:46;93972.28;;;15.30;38.79
40650;BME280;26342;42.826;23.992;2023-02-26T07:38:12;93946.50;;;15.29;38.96
40650;BME280;26342;42.826;23.992;2023-02-26T07:40:37;93976.84;;;15.38;39.65
40650;BME280;26342;42.826;23.992;2023-02-26T07:43:02;93977.00;;;15.42;38.62
40650;BME280;26342;42.826;23.992;2023-02-26T07:45:28;93953.75;;;15.37;38.47
40650;BME280;26342;42.826;23.992;2023-02-26T07:47:54;93985.66;;;15.47;38.96
40650;BME280;26342;42.826;23.992;2023-02-26T07:50:19;93971.28;;;15.52;38.69
40650;BME280;26342;42.826;23.992;2023-02-26T07:52:45;93961.31;;;15.52;39.22
40650;BME280;26342;42.826;23.992;2023-02-26T07:55:11;93987.06;;;15.53;38.78
40650;BME280;26342;42.826;23.992;2023-02-26T07:57:37;94006.69;;;15.54;38.77
40650;BME280;26342;42.826;23.992;2023-02-26T08:00:05;93972.97;;;15.74;38.73
40650;BME280;26342;42.826;23.992;2023-02-26T08:02:31;93971.06;;;15.74;38.86
40650;BME280;26342;42.826;23.992;2023-02-26T08:04:56;93988.53;;;15.98;40.51
40650;BME280;26342;42.826;23.992;2023-02-26T08:07:22;93967.63;;;15.95;38.53
40650;BME280;26342;42.826;23.992;2023-02-26T08:09:48;93983.47;;;15.96;38.67
40650;BME280;26342;42.826;23.992;2023-02-26T08:12:13;93949.41;;;16.00;38.48
40650;BME280;26342;42.826;23.992;2023-02-26T08:14:38;93952.22;;;16.12;37.71
40650;BME280;26342;42.826;23.992;2023-02-26T08:17:07;93978.59;;;16.19;37.81
40650;BME280;26342;42.826;23.992;2023-02-26T08:19:32;93960.59;;;16.11;37.70
40650;BME280;26342;42.826;23.992;2023-02-26T08:21:58;93963.56;;;16.18;37.62
40650;BME280;26342;42.826;23.992;2023-02-26T08:24:24;93956.09;;;16.24;38.05
40650;BME280;26342;42.826;23.992;2023-02-26T08:26:49;93970.66;;;16.23;37.65
40650;BME280;26342;42.826;23.992;2023-02-26T08:29:14;93962.25;;;16.24;37.82
40650;BME280;26342;42.826;23.992;2023-02-26T08:31:40;93964.44;;;16.31;38.01
40650;BME280;26342;42.826;23.992;2023-02-26T08:34:05;93975.47;;;16.38;37.29
40650;BME280;26342;42.826;23.992;2023-02-26T08:36:31;93952.91;;;16.51;36.73
40650;BME280;26342;42.826;23.992;2023-02-26T08:38:57;93970.69;;;16.64;36.68
40650;BME280;26342;42.826;23.992;2023-02-26T08:41:23;93958.88;;;16.57;36.86
40650;BME280;26342;42.826;23.992;2023-02-26T08:43:48;93936.16;;;16.45;36.62
40650;BME280;26342;42.826;23.992;2023-02-26T08:46:14;93927.06;;;16.50;36.42
40650;BME280;26342;42.826;23.992;2023-02-26T08:48:39;93944.06;;;16.42;36.26
40650;BME280;26342;42.826;23.992;2023-02-26T08:51:05;93968.78;;;16.44;36.86
40650;BME280;26342;42.826;23.992;2023-02-26T08:53:30;93951.00;;;16.52;36.50
40650;BME280;26342;42.826;23.992;2023-02-26T08:55:56;93968.06;;;16.56;37.11
40650;BME280;26342;42.826;23.992;2023-02-26T08:58:21;93951.72;;;16.61;36.71
40650;BME280;26342;42.826;23.992;2023-02-26T09:00:47;93982.47;;;16.60;36.14
40650;BME280;26342;42.826;23.992;2023-02-26T09:03:12;93955.47;;;16.68;36.50
40650;BME280;26342;42.826;23.992;2023-02-26T09:05:38;93946.56;;;16.77;36.37
40650;BME280;26342;42.826;23.992;2023-02-26T09:08:05;93966.25;;;16.89;36.82
40650;BME280;26342;42.826;23.992;2023-02-26T09:10:31;93959.69;;;16.99;35.52
40650;BME280;26342;42.826;23.992;2023-02-26T09:12:57;93935.16;;;16.92;36.55
40650;BME280;26342;42.826;23.992;2023-02-26T09:15:23;93949.00;;;17.02;35.55
40650;BME280;26342;42.826;23.992;2023-02-26T09:17:48;93945.06;;;17.00;35.51
40650;BME280;26342;42.826;23.992;2023-02-26T09:20:16;93949.06;;;17.15;35.22
40650;BME280;26342;42.826;23.992;2023-02-26T09:22:41;93958.03;;;17.19;34.77
40650;BME280;26342;42.826;23.992;2023-02-26T09:25:07;93950.06;;;17.10;35.01
40650;BME280;26342;42.826;23.992;2023-02-26T09:27:33;93957.44;;;17.01;35.49
40650;BME280;26342;42.826;23.992;2023-02-26T09:29:59;93940.31;;;17.18;35.38
40650;BME280;26342;42.826;23.992;2023-02-26T09:32:25;93917.16;;;17.17;34.22
40650;BME280;26342;42.826;23.992;2023-02-26T09:34:51;93938.97;;;17.24;34.69
40650;BME280;26342;42.826;23.992;2023-02-26T09:37:16;93932.91;;;17.27;34.61
40650;BME280;26342;42.826;23.992;2023-02-26T09:39:43;93954.31;;;17.56;33.49
40650;BME280;26342;42.826;23.992;2023-02-26T09:44:47;93955.63;;;18.20;33.45
40650;BME280;26342;42.826;23.992;2023-02-26T09:47:21;93960.78;;;18.37;32.97
40650;BME280;26342;42.826;23.992;2023-02-26T09:58:23;93958.75;;;18.87;33.61
40650;BME280;26342;42.826;23.992;2023-02-26T10:12:07;93961.56;;;19.46;30.65
40650;BME280;26342;42.826;23.992;2023-02-26T10:20:16;93959.28;;;19.48;30.40
40650;BME280;26342;42.826;23.992;2023-02-26T10:25:53;93938.50;;;19.21;30.95
40650;BME280;26342;42.826;23.992;2023-02-26T10:28:46;93909.06;;;19.19;31.02
40650;BME280;26342;42.826;23.992;2023-02-26T10:37:10;93919.19;;;19.66;29.98
40650;BME280;26342;42.826;23.992;2023-02-26T10:39:50;93897.09;;;19.80;30.17
40650;BME280;26342;42.826;23.992;2023-02-26T10:42:29;93898.94;;;19.92;30.04
40650;BME280;26342;42.826;23.992;2023-02-26T10:50:52;93913.59;;;19.91;30.05
40650;BME280;26342;42.826;23.992;2023-02-26T10:53:20;93908.44;;;19.86;29.98
40650;BME280;26342;42.826;23.992;2023-02-26T10:55:51;93946.41;;;19.89;30.24
40650;BME280;26342;42.826;23.992;2023-02-26T10:58:23;93929.56;;;19.96;30.22
40650;BME280;26342;42.826;23.992;2023-02-26T11:00:52;93904.72;;;20.25;30.67
40650;BME280;26342;42.826;23.992;2023-02-26T11:03:31;93914.44;;;20.11;30.44
40650;BME280;26342;42.826;23.992;2023-02-26T11:05:58;93941.09;;;19.61;30.71
40650;BME280;26342;42.826;23.992;2023-02-26T11:08:31;93912.94;;;19.34;31.35
40650;BME280;26342;42.826;23.992;2023-02-26T11:10:58;93913.88;;;19.26;31.92
40650;BME280;26342;42.826;23.992;2023-02-26T11:13:26;93913.13;;;18.98;32.48
40650;BME280;26342;42.826;23.992;2023-02-26T11:15:55;93883.44;;;18.85;32.86
40650;BME280;26342;42.826;23.992;2023-02-26T11:18:27;93892.28;;;18.70;33.23
40650;BME280;26342;42.826;23.992;2023-02-26T11:20:57;93914.34;;;18.60;33.34
40650;BME280;26342;42.826;23.992;2023-02-26T11:23:26;93904.25;;;18.57;33.53
40650;BME280;26342;42.826;23.992;2023-02-26T11:26:19;93899.78;;;18.36;34.03
40650;BME280;26342;42.826;23.992;2023-02-26T11:28:53;93888.63;;;18.38;34.00
40650;BME280;26342;42.826;23.992;2023-02-26T11:31:21;93889.13;;;18.28;34.15
40650;BME280;26342;42.826;23.992;2023-02-26T11:33:52;93907.38;;;18.19;34.87
40650;BME280;26342;42.826;23.992;2023-02-26T11:36:23;93890.13;;;18.23;34.97
40650;BME280;26342;42.826;23.992;2023-02-26T11:38:56;93903.84;;;18.30;34.90
40650;BME280;26342;42.826;23.992;2023-02-26T11:41:22;93900.72;;;18.28;34.54
40650;BME280;26342;42.826;23.992;2023-02-26T11:44:01;93901.50;;;18.29;34.53
40650;BME280;26342;42.826;23.992;2023-02-26T11:46:27;93890.94;;;18.11;34.98
40650;BME280;26342;42.826;23.992;2023-02-26T11:48:54;93899.50;;;18.13;34.97
40650;BME280;26342;42.826;23.992;2023-02-26T11:51:24;93899.28;;;18.06;35.48
40650;BME280;26342;42.826;23.992;2023-02-26T11:56:37;93889.50;;;17.90;35.36
40650;BME280;26342;42.826;23.992;2023-02-26T11:59:19;93897.63;;;17.77;35.10
40650;BME280;26342;42.826;23.992;2023-02-26T12:01:46;93892.97;;;17.66;35.24
40650;BME280;26342;42.826;23.992;2023-02-26T12:04:15;93916.91;;;17.55;35.43
40650;BME280;26342;42.826;23.992;2023-02-26T12:06:43;93926.00;;;17.50;36.13
40650;BME280;26342;42.826;23.992;2023-02-26T12:09:13;93906.00;;;17.39;36.62
40650;BME280;26342;42.826;23.992;2023-02-26T12:25:24;93931.38;;;17.38;37.09
40650;BME280;26342;42.826;23.992;2023-02-26T12:31:00;93910.47;;;17.35;36.62
40650;BME280;26342;42.826;23.992;2023-02-26T12:50:06;93920.28;;;17.64;36.09
40650;BME280;26342;42.826;23.992;2023-02-26T13:18:41;93947.88;;;18.19;35.72
40650;BME280;26342;42.826;23.992;2023-02-26T13:21:06;93967.19;;;18.21;35.07
40650;BME280;26342;42.826;23.992;2023-02-26T13:23:48;93939.28;;;18.17;34.90
40650;BME280;26342;42.826;23.992;2023-02-26T13:26:14;93945.03;;;18.15;34.82
40650;BME280;26342;42.826;23.992;2023-02-26T13:28:52;93938.75;;;18.11;34.41
40650;BME280;26342;42.826;23.992;2023-02-26T13:31:24;93891.97;;;18.07;34.42
40650;BME280;26342;42.826;23.992;2023-02-26T13:33:53;93932.78;;;18.05;34.95
40650;BME280;26342;42.826;23.992;2023-02-26T13:36:21;93928.41;;;18.01;34.11
40650;BME280;26342;42.826;23.992;2023-02-26T13:46:25;93935.44;;;17.69;33.35
40650;BME280;26342;42.826;23.992;2023-02-26T13:51:47;93944.31;;;17.69;32.62
40650;BME280;26342;42.826;23.992;2023-02-26T14:11:59;93989.03;;;17.58;32.90
40650;BME280;26342;42.826;23.992;2023-02-26T14:22:18;94010.03;;;17.19;34.38
40650;BME280;26342;42.826;23.992;2023-02-26T14:24:53;94006.19;;;17.08;33.68
40650;BME280;26342;42.826;23.992;2023-02-26T14:32:46;94007.59;;;16.93;34.20
40650;BME280;26342;42.826;23.992;2023-02-26T14:35:16;93989.13;;;16.83;35.01
40650;BME280;26342;42.826;23.992;2023-02-26T14:37:46;94019.66;;;16.87;35.48
40650;BME280;26342;42.826;23.992;2023-02-26T14:40:17;94017.03;;;16.79;33.98
40650;BME280;26342;42.826;23.992;2023-02-26T14:42:50;94049.50;;;16.82;34.68
40650;BME280;26342;42.826;23.992;2023-02-26T14:47:51;94045.75;;;16.74;35.16
40650;BME280;26342;42.826;23.992;2023-02-26T14:50:20;94043.38;;;16.73;34.68
40650;BME280;26342;42.826;23.992;2023-02-26T14:56:10;94043.28;;;16.61;34.95
40650;BME280;26342;42.826;23.992;2023-02-26T14:58:51;94047.28;;;16.55;35.11
40650;BME280;26342;42.826;23.992;2023-02-26T15:01:44;94048.38;;;16.54;36.03
40650;BME280;26342;42.826;23.992;2023-02-26T15:15:09;94085.44;;;16.18;35.67
40650;BME280;26342;42.826;23.992;2023-02-26T15:17:47;94081.66;;;16.19;36.00
40650;BME280;26342;42.826;23.992;2023-02-26T16:12:42;94168.63;;;15.42;40.51
40650;BME280;26342;42.826;23.992;2023-02-26T16:15:25;94192.03;;;15.42;40.50
40650;BME280;26342;42.826;23.992;2023-02-26T16:17:54;94186.03;;;15.27;41.21
40650;BME280;26342;42.826;23.992;2023-02-26T16:20:23;94178.41;;;15.12;41.58
40650;BME280;26342;42.826;23.992;2023-02-26T16:22:57;94201.00;;;15.02;42.00
40650;BME280;26342;42.826;23.992;2023-02-26T16:27:59;94204.75;;;14.93;42.52
40650;BME280;26342;42.826;23.992;2023-02-26T16:30:30;94219.44;;;14.87;42.79
40650;BME280;26342;42.826;23.992;2023-02-26T16:32:57;94210.25;;;14.79;43.28
40650;BME280;26342;42.826;23.992;2023-02-26T16:35:31;94206.13;;;14.73;43.37
40650;BME280;26342;42.826;23.992;2023-02-26T16:38:10;94216.19;;;14.67;43.68
40650;BME280;26342;42.826;23.992;2023-02-26T16:40:39;94217.63;;;14.65;44.26
40650;BME280;26342;42.826;23.992;2023-02-26T16:45:55;94230.22;;;14.56;44.76
40650;BME280;26342;42.826;23.992;2023-02-26T16:48:25;94223.47;;;14.44;45.47
40650;BME280;26342;42.826;23.992;2023-02-26T16:51:05;94239.03;;;14.47;45.55
40650;BME280;26342;42.826;23.992;2023-02-26T16:53:34;94232.84;;;14.47;45.79
40650;BME280;26342;42.826;23.992;2023-02-26T16:56:02;94228.84;;;14.44;45.83
40650;BME280;26342;42.826;23.992;2023-02-26T16:58:29;94223.00;;;14.42;45.95
40650;BME280;26342;42.826;23.992;2023-02-26T17:01:04;94221.44;;;14.41;46.51
40650;BME280;26342;42.826;23.992;2023-02-26T17:03:32;94244.31;;;14.39;46.32
40650;BME280;26342;42.826;23.992;2023-02-26T17:06:30;94245.09;;;14.39;46.62
40650;BME280;26342;42.826;23.992;2023-02-26T17:08:50;94232.00;;;14.38;47.13
40650;BME280;26342;42.826;23.992;2023-02-26T17:11:26;94238.31;;;14.42;47.00
40650;BME280;26342;42.826;23.992;2023-02-26T17:16:28;94259.63;;;14.38;47.34
40650;BME280;26342;42.826;23.992;2023-02-26T17:18:54;94240.97;;;14.33;47.52
40650;BME280;26342;42.826;23.992;2023-02-26T17:21:19;94249.50;;;14.35;47.46
40650;BME280;26342;42.826;23.992;2023-02-26T17:23:45;94247.84;;;14.25;47.68
40650;BME280;26342;42.826;23.992;2023-02-26T17:26:10;94253.59;;;14.33;47.93
40650;BME280;26342;42.826;23.992;2023-02-26T17:28:40;94269.06;;;14.36;47.61
40650;BME280;26342;42.826;23.992;2023-02-26T17:31:06;94263.09;;;14.39;47.61